Auburn, Kansas
Current Conditions -  °F | °C
As of 3:53 PM on Tuesday 21 Oct 2014 (Local Time) from KFOE Reporting Station
Clear Clear  
Wind Chill: 76°   Ceiling: Unl
Heat Index: 76°   Visibility: 10mi
Dew Point: 41°   Wind: 6mph
Humidity: 29%   Direction: 130°SE
Pressure: 30.06"   Gusts: NA
Location:  38.91°N, 95.82°W
Report Text: KFOE 212053Z 13005KT 10SM CLR 24/05 A3006 RMK AO2 SLP174 T02440050 56018
Loading
Personal Weather Stations






























Interactive Weather Map
Tropical Storm Tracking
New forecast layout! Learn more

10-Day Weather Forecast

Advertisements
Track Severe Weather on mobile